Terminal Aerodrome Forecast
Issued by NWS

Home | Current Version | Previous Version | Text Only | Print | Product List | Glossary On
Versions: 1 2 3 4 5 6 7 8 9 10 11 12 13 14 15 16 17 18 19
000
FTUS45 KRIW 210529
TAFRKS
TAF
KRKS 210529Z 2106/2206 21005KT 6SM BR SCT005
      TEMPO 2106/2110 2SM BR BKN020
     FM211000 VRB05KT P6SM VCFG FEW005 BKN050
     FM211700 25006KT P6SM VCSH SCT030 BKN050
     FM212100 27014G24KT 5SM -SN SCT018 OVC030
     FM220100 27018G28KT P6SM SCT025 BKN040
     FM220500 25011KT P6SM SCT150=

USA.gov is the U.S. government's official web portal to all federal, state and local government web resources and services.